This demonstration page uses our WeatherBlox Daily Observations layout. Learn more.

Left ArrowRight Arrow

36.17497, -115.13722

Hourly Observations for January 1, 2019

Temp ( °F °C ) Dew Point ( °F °C ) Humidity (%) Winds ( mph kmh ) Pressure ( in mb ) Visibility ( mi km ) Precip ( " mm )
12:53 am 00:53 Clear 37 2.8 8 -13.3 30 30 NNW 23 37 30.14 1021 10 16.0934 0 0
1:53 am 01:53 Clear 36 2.2 7 -13.9 30 30 NNW 17 28 30.15 1021 10 16.0934 0 0
2:53 am 02:53 Clear 36 2.2 6 -14.4 28 28 N 17 28 30.16 1022 10 16.0934 0 0
3:53 am 03:53 Clear 35 1.7 6 -14.4 29 29 N 21 33 30.16 1021 10 16.0934 0 0
4:53 am 04:53 Clear 35 1.7 5 -15 28 28 N 17 28 30.18 1022 10 16.0934 0 0
5:53 am 05:53 Clear 34 1.1 5 -15 29 29 NNW 15 24 30.22 1023 10 16.0934 0 0
6:53 am 06:53 Sunny 34 1.1 5 -15 29 29 N 10 17 30.27 1025 10 16.0934 0 0
7:53 am 07:53 Sunny 35 1.7 5 -15 28 28 NNW 16 26 30.3 1026 10 16.0934 0 0
8:53 am 08:53 Sunny 37 2.8 5 -15 26 26 N 16 26 30.32 1027 10 16.0934 0 0
9:53 am 09:53 Sunny 39 3.9 3 -16.1 22 22 NNW 18 30 30.32 1027 10 16.0934 0 0
10:53 am 10:53 Sunny 40 4.4 3 -16.1 21 21 N 18 30 30.3 1026 10 16.0934 0 0
11:53 am 11:53 Sunny 42 5.6 2 -16.7 18 18 NNW 15 24 30.27 1025 10 16.0934 0 0
12:53 pm 12:53 Sunny 43 6.1 2 -16.7 18 18 N 14 22 30.24 1024 10 16.0934 0 0
1:53 pm 13:53 Sunny 44 6.7 2 -16.7 17 17 N 14 22 30.23 1024 10 16.0934 0 0
2:53 pm 14:53 Sunny 45 7.2 1 -17.2 16 16 NNW 16 26 30.22 1023 10 16.0934 0 0
3:53 pm 15:53 Sunny 45 7.2 1 -17.2 16 16 N 14 22 30.23 1024 10 16.0934 0 0
4:53 pm 16:53 Clear 43 6.1 1 -17.2 17 17 N 9 15 30.24 1024 10 16.0934 0 0
5:53 pm 17:53 Clear 41 5 1 -17.2 18 18 NE 6 9 30.26 1025 10 16.0934 0 0
6:53 pm 18:53 Clear 38 3.3 4 -15.6 24 24 ENE 8 13 30.28 1026 10 16.0934 0 0
7:53 pm 19:53 Clear 37 2.8 4 -15.6 25 25 VRB 3 6 30.3 1026 10 16.0934 0 0
8:53 pm 20:53 Clear 36 2.2 4 -15.6 26 26 Calm 30.3 1026 10 16.0934 0 0
9:53 pm 21:53 Clear 34 1.1 4 -15.6 28 28 N 5 7 30.3 1026 10 16.0934 0 0
10:53 pm 22:53 Clear 34 1.1 5 -15 29 29 VRB 3 6 30.31 1027 10 16.0934 0 0
11:53 pm 23:53 Clear 34 1.1 4 -15.6 28 28 SE 5 7 30.32 1027 10 16.0934 0 0

Powered by AerisWeather